createdAt,value
2017-07-11T00:00:22.992Z,61.40
2017-07-11T00:02:49.358Z,61.60
2017-07-11T00:05:15.682Z,60.50
2017-07-11T00:07:42.027Z,60.80
2017-07-11T00:10:09.258Z,60.90
2017-07-11T00:12:35.581Z,60.90
2017-07-11T00:15:01.965Z,61.50
2017-07-11T00:17:28.301Z,61.90
2017-07-11T00:19:54.645Z,61.80
2017-07-11T00:22:20.984Z,61.20
2017-07-11T00:24:48.049Z,62.40
2017-07-11T00:27:14.391Z,62.40
2017-07-11T00:29:40.711Z,62.60
2017-07-11T00:32:07.042Z,62.00
2017-07-11T00:34:33.397Z,61.70
2017-07-11T00:37:00.502Z,62.50
2017-07-11T00:39:26.849Z,62.60
2017-07-11T00:41:53.229Z,62.40
2017-07-11T00:44:19.569Z,62.90
2017-07-11T00:46:45.897Z,63.10
2017-07-11T00:49:12.231Z,63.30
2017-07-11T00:51:39.030Z,63.30
2017-07-11T00:54:05.382Z,63.20
2017-07-11T00:56:31.694Z,63.10
2017-07-11T00:58:58.776Z,62.80
2017-07-11T01:01:25.093Z,62.70
2017-07-11T01:03:51.501Z,62.70
2017-07-11T01:06:18.597Z,63.80
2017-07-11T01:08:45.020Z,63.80
2017-07-11T01:11:11.361Z,64.10
2017-07-11T01:13:37.714Z,63.90
2017-07-11T01:16:04.057Z,62.30
2017-07-11T01:18:30.389Z,62.40
2017-07-11T01:20:56.734Z,63.30
2017-07-11T01:23:23.093Z,62.60
2017-07-11T01:25:49.505Z,61.80
2017-07-11T01:28:15.886Z,61.50
2017-07-11T01:30:42.273Z,62.80
2017-07-11T01:33:08.630Z,61.60
2017-07-11T01:35:34.967Z,61.50
2017-07-11T01:38:01.309Z,61.60
2017-07-11T01:40:27.724Z,60.60
2017-07-11T01:42:54.921Z,61.50
2017-07-11T01:45:22.039Z,60.10
2017-07-11T01:47:48.409Z,60.10
2017-07-11T01:50:14.908Z,59.70
2017-07-11T01:52:41.276Z,59.10
2017-07-11T01:55:07.653Z,59.40
2017-07-11T01:57:34.037Z,59.40
2017-07-11T02:00:00.489Z,58.20
2017-07-11T02:02:26.870Z,58.60
2017-07-11T02:04:53.234Z,58.60
2017-07-11T02:07:19.592Z,58.40
2017-07-11T02:09:45.950Z,58.40
2017-07-11T02:12:12.312Z,58.00
2017-07-11T02:14:39.345Z,57.00
2017-07-11T02:17:06.425Z,57.60
2017-07-11T02:19:32.801Z,57.70
2017-07-11T02:21:59.143Z,56.60
2017-07-11T02:24:25.478Z,56.80
2017-07-11T02:26:51.836Z,56.70
2017-07-11T02:29:18.169Z,56.20
2017-07-11T02:31:45.050Z,56.60
2017-07-11T02:34:11.369Z,56.00
2017-07-11T02:36:37.711Z,55.60
2017-07-11T02:39:04.060Z,55.70
2017-07-11T02:41:30.405Z,55.20
2017-07-11T02:43:57.177Z,55.40
2017-07-11T02:46:23.507Z,55.50
2017-07-11T02:48:49.837Z,55.50
2017-07-11T02:51:16.945Z,55.70
2017-07-11T02:53:43.297Z,55.60
2017-07-11T02:56:10.418Z,55.30
2017-07-11T02:58:36.757Z,55.30
2017-07-11T03:01:03.079Z,54.60
2017-07-11T03:03:29.432Z,54.80
2017-07-11T03:05:55.755Z,54.30
2017-07-11T03:08:22.066Z,54.30
2017-07-11T03:10:49.124Z,55.00
2017-07-11T03:13:15.474Z,55.10
2017-07-11T03:15:41.813Z,55.00
2017-07-11T03:18:08.207Z,56.00
2017-07-11T03:20:34.589Z,55.30
2017-07-11T03:23:00.910Z,55.10
2017-07-11T03:25:27.240Z,55.40
2017-07-11T03:27:53.570Z,54.90
2017-07-11T03:30:19.893Z,55.00
2017-07-11T03:32:46.213Z,54.80
2017-07-11T03:35:12.550Z,54.80
2017-07-11T03:37:38.878Z,54.90
2017-07-11T03:40:12.210Z,54.30
2017-07-11T03:42:38.565Z,55.40
2017-07-11T03:45:05.254Z,55.20
2017-07-11T03:47:31.624Z,55.70
2017-07-11T03:49:57.974Z,55.20
2017-07-11T03:52:24.323Z,55.10
2017-07-11T03:54:50.646Z,54.60
2017-07-11T03:57:17.766Z,54.90
2017-07-11T03:59:44.105Z,54.80
2017-07-11T04:02:10.508Z,55.50
2017-07-11T04:04:36.867Z,55.50
2017-07-11T04:07:03.201Z,55.70
2017-07-11T04:09:29.552Z,54.70
2017-07-11T04:11:55.899Z,55.10
2017-07-11T04:14:22.312Z,55.40
2017-07-11T04:16:48.664Z,55.60
2017-07-11T04:19:15.027Z,55.50
2017-07-11T04:21:41.365Z,54.40
2017-07-11T04:24:07.750Z,55.10
2017-07-11T04:26:34.109Z,54.70
2017-07-11T04:29:01.200Z,55.20
2017-07-11T04:31:27.559Z,55.20
2017-07-11T04:33:53.872Z,54.90
2017-07-11T04:36:20.231Z,55.40
2017-07-11T04:38:46.642Z,55.50
2017-07-11T04:41:13.080Z,56.10
2017-07-11T04:43:39.475Z,56.20
2017-07-11T04:46:05.847Z,55.40
2017-07-11T04:48:32.197Z,57.00
2017-07-11T04:50:58.535Z,55.60
2017-07-11T04:53:24.937Z,54.90
2017-07-11T04:55:51.249Z,55.60
2017-07-11T04:58:17.601Z,54.50
2017-07-11T05:00:43.913Z,54.90
2017-07-11T05:03:10.564Z,54.80
2017-07-11T05:05:38.138Z,54.80
2017-07-11T05:08:11.289Z,55.20
2017-07-11T05:10:38.442Z,54.40
2017-07-11T05:13:05.267Z,55.30
2017-07-11T05:15:31.625Z,55.40
2017-07-11T05:17:57.971Z,54.60
2017-07-11T05:20:24.389Z,54.70
2017-07-11T05:22:50.759Z,55.10
2017-07-11T05:25:17.118Z,54.80
2017-07-11T05:27:43.478Z,55.10
2017-07-11T05:30:09.841Z,55.40
2017-07-11T05:32:36.201Z,54.50
2017-07-11T05:35:03.288Z,54.70
2017-07-11T05:37:30.001Z,54.50
2017-07-11T05:39:56.965Z,55.80
2017-07-11T05:42:23.327Z,54.80
2017-07-11T05:44:49.756Z,55.80
2017-07-11T05:47:19.643Z,55.90
2017-07-11T05:49:45.973Z,54.20
2017-07-11T05:52:12.298Z,54.80
2017-07-11T05:54:38.643Z,54.80
2017-07-11T05:57:05.021Z,53.80
2017-07-11T05:59:31.351Z,53.20
2017-07-11T06:02:01.657Z,54.00
2017-07-11T06:04:28.005Z,54.60
2017-07-11T06:06:55.119Z,53.90
2017-07-11T06:09:22.242Z,52.80
2017-07-11T06:11:48.572Z,53.40
2017-07-11T06:14:14.914Z,54.40
2017-07-11T06:16:44.745Z,54.30
2017-07-11T06:19:11.214Z,54.20
2017-07-11T06:21:37.526Z,54.80
2017-07-11T06:24:03.955Z,54.00
2017-07-11T06:26:30.296Z,54.30
2017-07-11T06:28:56.633Z,54.10
2017-07-11T06:31:29.307Z,54.20
2017-07-11T06:33:55.641Z,54.40
2017-07-11T06:36:22.753Z,55.00
2017-07-11T06:38:49.103Z,54.10
2017-07-11T06:41:15.482Z,53.70
2017-07-11T06:43:41.829Z,54.20
2017-07-11T06:46:08.911Z,54.50
2017-07-11T06:48:41.143Z,53.80
2017-07-11T06:51:07.508Z,54.30
2017-07-11T06:53:33.821Z,55.10
2017-07-11T06:56:00.133Z,54.40
2017-07-11T06:58:26.457Z,54.40
2017-07-11T07:00:52.837Z,54.30
2017-07-11T07:03:19.202Z,54.90
2017-07-11T07:05:45.539Z,54.40
2017-07-11T07:08:11.891Z,54.20
2017-07-11T07:10:38.268Z,54.60
2017-07-11T07:13:05.362Z,54.10
2017-07-11T07:15:32.457Z,54.00
2017-07-11T07:20:36.391Z,54.20
2017-07-11T07:23:02.718Z,54.30
2017-07-11T07:25:29.088Z,54.40
2017-07-11T07:27:55.437Z,55.30
2017-07-11T07:30:26.628Z,54.90
2017-07-11T07:32:53.017Z,55.10
2017-07-11T07:35:19.364Z,55.10
2017-07-11T07:37:45.698Z,54.60
2017-07-11T07:40:12.021Z,54.70
2017-07-11T07:42:38.357Z,54.60
2017-07-11T07:45:04.694Z,55.50
2017-07-11T07:47:37.444Z,55.40
2017-07-11T07:50:03.792Z,55.10
2017-07-11T07:52:30.114Z,55.20
2017-07-11T07:54:56.435Z,54.80
2017-07-11T07:57:22.774Z,54.10
2017-07-11T07:59:49.124Z,53.80
2017-07-11T08:02:23.665Z,53.80
2017-07-11T08:04:50.050Z,54.40
2017-07-11T08:07:17.117Z,54.70
2017-07-11T08:09:43.436Z,54.00
2017-07-11T08:12:09.770Z,54.20
2017-07-11T08:14:36.849Z,54.70
2017-07-11T08:17:08.938Z,55.20
2017-07-11T08:19:35.285Z,54.60
2017-07-11T08:22:01.620Z,54.10
2017-07-11T08:24:27.951Z,53.90
2017-07-11T08:26:54.354Z,54.20
2017-07-11T08:29:20.770Z,54.50
2017-07-11T08:31:47.882Z,54.80
2017-07-11T08:34:14.353Z,53.70
2017-07-11T08:36:40.718Z,52.80
2017-07-11T08:39:07.128Z,52.40
2017-07-11T08:41:33.519Z,52.90
2017-07-11T08:43:59.862Z,52.60
2017-07-11T08:46:26.202Z,52.50
2017-07-11T08:48:52.533Z,52.80
2017-07-11T08:51:18.879Z,52.10
2017-07-11T08:53:45.187Z,52.20
2017-07-11T08:56:11.666Z,52.10
2017-07-11T08:58:37.999Z,53.10
2017-07-11T09:01:05.090Z,53.70
2017-07-11T09:03:31.449Z,54.00
2017-07-11T09:05:57.804Z,54.00
2017-07-11T09:08:24.210Z,53.70
2017-07-11T09:10:54.021Z,53.70
2017-07-11T09:13:20.361Z,51.80
2017-07-11T09:15:46.737Z,53.50
2017-07-11T09:18:13.131Z,52.20
2017-07-11T09:20:39.489Z,51.00
2017-07-11T09:23:05.813Z,51.80
2017-07-11T09:25:32.153Z,52.10
2017-07-11T09:28:05.262Z,52.10
2017-07-11T09:30:31.589Z,50.40
2017-07-11T09:32:57.937Z,50.60
2017-07-11T09:35:24.256Z,48.80
2017-07-11T09:37:50.642Z,49.70
2017-07-11T09:40:21.050Z,49.60
2017-07-11T09:42:47.658Z,49.60
2017-07-11T09:45:14.014Z,49.60
2017-07-11T09:47:40.381Z,48.90
2017-07-11T09:50:06.721Z,48.00
2017-07-11T09:52:33.063Z,49.90
2017-07-11T09:55:14.305Z,49.10
2017-07-11T09:57:40.882Z,49.70
2017-07-11T10:00:08.179Z,48.60
2017-07-11T10:02:34.730Z,48.60
2017-07-11T10:05:01.341Z,48.50
2017-07-11T10:07:27.936Z,48.70
2017-07-11T10:10:00.475Z,49.40
2017-07-11T10:12:27.228Z,48.80
2017-07-11T10:14:53.800Z,49.20
2017-07-11T10:17:20.373Z,48.80
2017-07-11T10:19:47.817Z,46.90
2017-07-11T10:22:14.402Z,46.90
2017-07-11T10:24:41.016Z,47.90
2017-07-11T10:27:11.157Z,46.20
2017-07-11T10:29:37.757Z,46.30
2017-07-11T10:32:04.346Z,47.20
2017-07-11T10:34:30.892Z,46.90
2017-07-11T10:36:57.456Z,46.60
2017-07-11T10:39:24.045Z,45.30
2017-07-11T10:41:50.615Z,46.50
2017-07-11T10:44:17.145Z,45.30
2017-07-11T10:46:48.913Z,46.60
2017-07-11T10:49:15.473Z,45.30
2017-07-11T10:51:42.003Z,45.00
2017-07-11T10:54:08.572Z,45.90
2017-07-11T10:56:35.104Z,46.30
2017-07-11T10:59:01.667Z,45.80
2017-07-11T11:01:34.718Z,45.00
2017-07-11T11:04:01.311Z,45.10
2017-07-11T11:06:27.865Z,45.20
2017-07-11T11:08:54.462Z,44.30
2017-07-11T11:11:21.133Z,45.10
2017-07-11T11:13:48.445Z,45.50
2017-07-11T11:16:16.506Z,45.50
2017-07-11T11:21:20.847Z,43.30
2017-07-11T11:23:47.437Z,43.10
2017-07-11T11:26:13.991Z,45.00
2017-07-11T11:28:41.302Z,44.30
2017-07-11T11:31:11.517Z,44.30
2017-07-11T11:33:38.841Z,43.10
2017-07-11T11:36:05.390Z,43.10
2017-07-11T11:38:31.983Z,43.20
2017-07-11T11:40:58.555Z,42.80
2017-07-11T11:43:25.160Z,41.30
2017-07-11T11:45:51.746Z,41.00
2017-07-11T11:48:19.902Z,41.00
2017-07-11T11:50:46.486Z,39.90
2017-07-11T11:53:13.034Z,40.00
2017-07-11T11:55:39.482Z,40.80
2017-07-11T11:58:06.056Z,40.20
2017-07-11T12:00:32.636Z,41.90
2017-07-11T12:02:59.193Z,38.90
2017-07-11T12:05:25.762Z,39.40
2017-07-11T12:07:52.334Z,39.40
2017-07-11T12:10:18.909Z,38.60
2017-07-11T12:12:45.861Z,37.60
2017-07-11T12:15:12.425Z,39.70
2017-07-11T12:17:39.017Z,39.20
2017-07-11T12:20:05.596Z,36.90
2017-07-11T12:22:32.225Z,40.00
2017-07-11T12:24:58.790Z,40.50
2017-07-11T12:27:25.387Z,39.40
2017-07-11T12:29:51.884Z,40.90
2017-07-11T12:32:24.674Z,38.00
2017-07-11T12:34:51.956Z,38.00
2017-07-11T12:37:18.449Z,38.00
2017-07-11T12:39:44.993Z,36.80
2017-07-11T12:42:11.733Z,36.40
2017-07-11T12:44:38.305Z,37.30
2017-07-11T12:47:04.858Z,35.50
2017-07-11T12:49:38.295Z,35.90
2017-07-11T12:52:04.861Z,37.90
2017-07-11T12:54:31.448Z,37.60
2017-07-11T12:56:58.002Z,36.20
2017-07-11T12:59:24.589Z,35.70
2017-07-11T13:01:51.152Z,36.80
2017-07-11T13:04:18.381Z,36.10
2017-07-11T13:06:44.929Z,35.30
2017-07-11T13:09:11.768Z,36.00
2017-07-11T13:11:38.430Z,37.80
2017-07-11T13:14:05.042Z,36.00
2017-07-11T13:16:31.621Z,34.50
2017-07-11T13:18:58.181Z,34.60
2017-07-11T13:21:24.750Z,37.00
2017-07-11T13:23:51.338Z,36.50
2017-07-11T13:26:17.898Z,34.80
2017-07-11T13:28:44.579Z,35.70
2017-07-11T13:31:11.200Z,36.00
2017-07-11T13:33:37.736Z,36.40
2017-07-11T13:36:04.473Z,34.80
2017-07-11T13:38:31.061Z,33.90
2017-07-11T13:40:57.746Z,34.00
2017-07-11T13:43:25.077Z,35.90
2017-07-11T13:45:51.712Z,35.90
2017-07-11T13:48:18.260Z,35.70
2017-07-11T13:50:44.820Z,34.40
2017-07-11T13:53:11.500Z,34.50
2017-07-11T13:55:38.057Z,36.00
2017-07-11T13:58:05.345Z,35.50
2017-07-11T14:00:31.941Z,35.80
2017-07-11T14:02:58.532Z,37.50
2017-07-11T14:05:25.073Z,37.30
2017-07-11T14:07:51.621Z,35.90
2017-07-11T14:10:18.200Z,35.40
2017-07-11T14:12:44.795Z,36.30
2017-07-11T14:15:11.523Z,35.00
2017-07-11T14:17:38.797Z,36.30
2017-07-11T14:20:05.395Z,36.40
2017-07-11T14:22:32.093Z,36.40
2017-07-11T14:24:58.650Z,35.70
2017-07-11T14:27:25.240Z,35.20
2017-07-11T14:29:51.817Z,35.60
2017-07-11T14:32:18.441Z,35.90
2017-07-11T14:34:45.027Z,34.90
2017-07-11T14:37:12.987Z,35.20
2017-07-11T14:39:39.550Z,34.10
2017-07-11T14:42:06.093Z,35.00
2017-07-11T14:44:32.648Z,35.90
2017-07-11T14:46:59.212Z,36.00
2017-07-11T14:49:25.754Z,36.20
2017-07-11T14:51:52.432Z,35.50
2017-07-11T14:54:19.758Z,35.30
2017-07-11T14:56:46.302Z,34.90
2017-07-11T14:59:12.869Z,37.10
2017-07-11T15:01:40.209Z,37.00
2017-07-11T15:04:07.430Z,37.60
2017-07-11T15:06:34.017Z,37.70
2017-07-11T15:11:32.326Z,36.30
2017-07-11T15:13:58.883Z,36.60
2017-07-11T15:16:25.481Z,35.80
2017-07-11T15:18:52.045Z,37.60
2017-07-11T15:21:18.633Z,36.90
2017-07-11T15:23:45.278Z,38.20
2017-07-11T15:26:11.925Z,37.00
2017-07-11T15:28:38.491Z,35.60
2017-07-11T15:31:05.032Z,36.20
2017-07-11T15:33:31.607Z,36.60
2017-07-11T15:35:58.177Z,36.30
2017-07-11T15:38:24.728Z,36.40
2017-07-11T15:40:51.255Z,35.70
2017-07-11T15:43:17.791Z,36.80
2017-07-11T15:45:44.349Z,35.90
2017-07-11T15:48:10.929Z,36.00
2017-07-11T15:50:37.566Z,36.10
2017-07-11T15:53:04.113Z,35.90
2017-07-11T15:55:30.669Z,36.60
2017-07-11T15:57:57.278Z,36.00
2017-07-11T16:00:23.841Z,36.40
2017-07-11T16:02:52.056Z,36.40
2017-07-11T16:05:18.588Z,34.90
2017-07-11T16:07:45.141Z,35.80
2017-07-11T16:10:11.803Z,35.00
2017-07-11T16:12:38.409Z,35.00
2017-07-11T16:15:05.032Z,36.60
2017-07-11T16:17:35.210Z,36.80
2017-07-11T16:20:01.619Z,36.40
2017-07-11T16:22:27.970Z,35.50
2017-07-11T16:24:54.293Z,36.00
2017-07-11T16:27:20.724Z,34.60
2017-07-11T16:29:47.056Z,36.00
2017-07-11T16:32:13.701Z,34.90
2017-07-11T16:34:40.792Z,35.60
2017-07-11T16:37:07.117Z,35.50
2017-07-11T16:39:33.450Z,35.70
2017-07-11T16:42:00.747Z,37.20
2017-07-11T16:44:27.090Z,37.20
2017-07-11T16:46:53.549Z,35.50
2017-07-11T16:49:20.007Z,35.90
2017-07-11T16:51:46.355Z,36.00
2017-07-11T16:54:12.697Z,36.20
2017-07-11T16:56:39.044Z,36.80
2017-07-11T16:59:05.441Z,34.30
2017-07-11T17:01:31.871Z,34.60
2017-07-11T17:03:58.233Z,35.50
2017-07-11T17:06:24.557Z,34.50
2017-07-11T17:08:51.133Z,35.10
2017-07-11T17:11:17.675Z,35.10
2017-07-11T17:13:44.491Z,35.30
2017-07-11T17:16:11.050Z,34.80
2017-07-11T17:18:37.683Z,34.90
2017-07-11T17:21:04.244Z,36.00
2017-07-11T17:23:30.943Z,35.50
2017-07-11T17:25:57.499Z,36.20
2017-07-11T17:28:24.904Z,36.40
2017-07-11T17:30:51.443Z,36.30
2017-07-11T17:33:18.102Z,36.40
2017-07-11T17:35:44.762Z,35.80
2017-07-11T17:38:11.408Z,35.30
2017-07-11T17:40:38.138Z,35.00
2017-07-11T17:43:04.701Z,35.30
2017-07-11T17:45:32.045Z,36.00
2017-07-11T17:47:58.593Z,36.00
2017-07-11T17:50:25.143Z,35.60
2017-07-11T17:52:51.851Z,36.70
2017-07-11T17:55:18.407Z,36.00
2017-07-11T17:57:45.049Z,36.90
2017-07-11T18:00:11.629Z,36.70
2017-07-11T18:02:38.175Z,36.80
2017-07-11T18:05:04.798Z,36.80
2017-07-11T18:07:31.366Z,36.00
2017-07-11T18:09:58.119Z,36.80
2017-07-11T18:12:24.709Z,36.60
2017-07-11T18:14:51.302Z,36.50
2017-07-11T18:17:17.877Z,36.50
2017-07-11T18:19:44.372Z,36.20
2017-07-11T18:22:12.021Z,36.90
2017-07-11T18:24:38.714Z,38.20
2017-07-11T18:27:05.296Z,36.40
2017-07-11T18:29:32.325Z,37.00
2017-07-11T18:31:58.979Z,38.00
2017-07-11T18:34:25.658Z,37.60
2017-07-11T18:36:52.287Z,37.60
2017-07-11T18:39:19.497Z,38.20
2017-07-11T18:41:45.976Z,38.20
2017-07-11T18:44:12.812Z,37.70
2017-07-11T18:46:39.332Z,38.50
2017-07-11T18:49:05.670Z,38.30
2017-07-11T18:51:32.326Z,38.40
2017-07-11T18:53:58.669Z,39.30
2017-07-11T18:56:25.223Z,38.70
2017-07-11T18:58:51.801Z,39.20
2017-07-11T19:01:19.543Z,40.00
2017-07-11T19:03:45.879Z,39.20
2017-07-11T19:06:12.377Z,39.90
2017-07-11T19:08:38.697Z,40.00
2017-07-11T19:11:05.313Z,41.10
2017-07-11T19:13:32.223Z,39.50
2017-07-11T19:15:58.663Z,41.00
2017-07-11T19:18:25.067Z,39.80
2017-07-11T19:20:51.667Z,42.00
2017-07-11T19:23:18.245Z,43.10
2017-07-11T19:25:44.637Z,41.70
2017-07-11T19:28:11.212Z,42.50
2017-07-11T19:30:37.803Z,43.70
2017-07-11T19:33:04.346Z,43.50
2017-07-11T19:35:30.817Z,43.40
2017-07-11T19:37:57.441Z,41.90
2017-07-11T19:40:24.534Z,41.50
2017-07-11T19:42:57.708Z,41.50
2017-07-11T19:45:24.045Z,41.40
2017-07-11T19:47:50.390Z,41.50
2017-07-11T19:50:16.717Z,41.40
2017-07-11T19:52:43.097Z,42.30
2017-07-11T19:55:09.500Z,44.50
2017-07-11T19:57:35.997Z,47.20
2017-07-11T20:00:02.358Z,49.20
2017-07-11T20:02:28.693Z,52.90
2017-07-11T20:04:55.195Z,52.80
2017-07-11T20:07:21.632Z,53.60
2017-07-11T20:09:47.981Z,54.10
2017-07-11T20:12:14.328Z,55.90
2017-07-11T20:14:40.710Z,55.80
2017-07-11T20:17:07.046Z,56.10
2017-07-11T20:19:33.417Z,56.70
2017-07-11T20:21:59.826Z,58.40
2017-07-11T20:24:26.794Z,59.00
2017-07-11T20:26:53.253Z,60.20
2017-07-11T20:29:19.616Z,60.70
2017-07-11T20:31:45.995Z,61.80
2017-07-11T20:34:12.433Z,62.00
2017-07-11T20:36:39.600Z,62.40
2017-07-11T20:39:05.959Z,62.30
2017-07-11T20:41:32.274Z,62.90
2017-07-11T20:43:58.622Z,62.80
2017-07-11T20:46:25.769Z,63.20
2017-07-11T20:48:52.198Z,63.20
2017-07-11T20:51:18.520Z,62.60
2017-07-11T20:53:44.869Z,63.40
2017-07-11T20:56:12.166Z,63.90
2017-07-11T20:58:38.525Z,63.90
2017-07-11T21:01:04.841Z,64.00
2017-07-11T21:03:31.878Z,64.10
2017-07-11T21:05:59.309Z,64.10
2017-07-11T21:08:26.198Z,64.20
2017-07-11T21:10:52.602Z,63.30
2017-07-11T21:13:19.343Z,63.10
2017-07-11T21:15:45.798Z,64.20
2017-07-11T21:18:13.466Z,63.70
2017-07-11T21:20:40.578Z,62.60
2017-07-11T21:23:06.964Z,62.60
2017-07-11T21:25:33.365Z,62.80
2017-07-11T21:27:59.698Z,63.20
2017-07-11T21:30:26.871Z,62.80
2017-07-11T21:32:53.209Z,62.70
2017-07-11T21:35:19.691Z,63.20
2017-07-11T21:37:46.025Z,63.10
2017-07-11T21:40:12.425Z,63.50
2017-07-11T21:42:38.762Z,63.30
2017-07-11T21:45:05.146Z,62.80
2017-07-11T21:47:31.463Z,63.30
2017-07-11T21:49:58.033Z,62.60
2017-07-11T21:52:24.693Z,63.30
2017-07-11T21:54:51.133Z,63.00
2017-07-11T21:57:17.473Z,63.00
2017-07-11T21:59:44.210Z,62.40
2017-07-11T22:02:10.854Z,62.60
2017-07-11T22:04:37.474Z,62.80
2017-07-11T22:07:04.938Z,63.20
2017-07-11T22:09:31.568Z,63.20
2017-07-11T22:11:58.202Z,62.60
2017-07-11T22:14:24.836Z,63.00
2017-07-11T22:16:51.407Z,62.90
2017-07-11T22:19:17.969Z,63.10
2017-07-11T22:21:45.044Z,62.90
2017-07-11T22:24:11.388Z,63.30
2017-07-11T22:26:37.991Z,63.40
2017-07-11T22:29:04.585Z,62.90
2017-07-11T22:31:31.656Z,62.90
2017-07-11T22:33:57.982Z,62.70
2017-07-11T22:36:25.304Z,63.30
2017-07-11T22:38:51.653Z,63.30
2017-07-11T22:41:18.001Z,62.90
2017-07-11T22:43:45.378Z,64.50
2017-07-11T22:46:12.935Z,63.70
2017-07-11T22:48:39.997Z,63.20
2017-07-11T22:51:06.789Z,63.30
2017-07-11T22:53:33.236Z,62.70
2017-07-11T22:55:59.590Z,63.30
2017-07-11T22:58:26.409Z,63.10
2017-07-11T23:00:52.853Z,63.40
2017-07-11T23:03:19.177Z,62.30
2017-07-11T23:05:46.297Z,63.80
2017-07-11T23:08:12.689Z,63.80
2017-07-11T23:10:39.767Z,63.90
2017-07-11T23:13:06.135Z,63.90
2017-07-11T23:15:32.990Z,64.40
2017-07-11T23:17:59.310Z,63.40
2017-07-11T23:20:25.669Z,64.90
2017-07-11T23:22:51.984Z,64.20
2017-07-11T23:25:18.301Z,64.40
2017-07-11T23:27:44.655Z,63.30
2017-07-11T23:30:11.029Z,63.70
2017-07-11T23:32:37.449Z,63.20
2017-07-11T23:35:03.830Z,63.00
2017-07-11T23:37:31.174Z,62.60
2017-07-11T23:39:57.520Z,62.00
2017-07-11T23:42:23.896Z,61.60
2017-07-11T23:44:50.289Z,61.60
2017-07-11T23:47:16.673Z,61.60
2017-07-11T23:49:44.339Z,62.30
2017-07-11T23:52:10.689Z,62.30
2017-07-11T23:54:37.042Z,61.70
2017-07-11T23:57:03.451Z,61.30
2017-07-11T23:59:30.119Z,61.40
